createdAt,value
2019-05-29T00:01:31.873Z,98694.80
2019-05-29T00:04:45.568Z,98702.23
2019-05-29T00:07:59.090Z,98699.73
2019-05-29T00:11:12.700Z,98700.70
2019-05-29T00:14:27.581Z,98705.14
2019-05-29T00:17:41.455Z,98710.97
2019-05-29T00:20:54.970Z,98710.65
2019-05-29T00:24:08.842Z,98711.66
2019-05-29T00:27:22.369Z,98718.01
2019-05-29T00:30:35.987Z,98731.88
2019-05-29T00:33:49.815Z,98727.22
2019-05-29T00:37:03.414Z,98732.84
2019-05-29T00:40:17.237Z,98733.97
2019-05-29T00:43:30.742Z,98736.37
2019-05-29T00:46:44.245Z,98737.14
2019-05-29T00:49:58.191Z,98740.00
2019-05-29T00:53:12.200Z,98742.64
2019-05-29T00:56:25.697Z,98742.32
2019-05-29T00:59:39.319Z,98742.89
2019-05-29T01:02:52.854Z,98746.26
2019-05-29T01:06:06.357Z,98753.01
2019-05-29T01:09:20.760Z,98753.69
2019-05-29T01:12:34.701Z,98759.36
2019-05-29T01:15:48.207Z,98761.98
2019-05-29T01:19:20.348Z,98765.80
2019-05-29T01:22:33.891Z,98768.09
2019-05-29T01:25:47.497Z,98772.22
2019-05-29T01:29:01.015Z,98775.64
2019-05-29T01:32:15.501Z,98779.73
2019-05-29T01:35:29.228Z,98782.52
2019-05-29T01:38:43.262Z,98778.86
2019-05-29T01:41:57.061Z,98784.08
2019-05-29T01:45:11.085Z,98788.22
2019-05-29T01:48:24.718Z,98787.33
2019-05-29T01:51:38.423Z,98787.45
2019-05-29T01:54:52.021Z,98792.08
2019-05-29T01:58:05.631Z,98805.00
2019-05-29T02:01:19.895Z,98812.27
2019-05-29T02:04:33.838Z,98810.63
2019-05-29T02:07:47.319Z,98810.70
2019-05-29T02:11:00.818Z,98818.21
2019-05-29T02:14:14.342Z,98821.27
2019-05-29T02:17:28.052Z,98827.09
2019-05-29T02:20:41.770Z,98834.66
2019-05-29T02:23:55.271Z,98835.83
2019-05-29T02:27:08.734Z,98845.55
2019-05-29T02:30:26.057Z,98844.72
2019-05-29T02:33:38.830Z,98841.91
2019-05-29T02:36:52.310Z,98845.77
2019-05-29T02:40:07.440Z,98850.63
2019-05-29T02:43:21.409Z,98850.84
2019-05-29T02:46:36.506Z,98859.36
2019-05-29T02:49:50.029Z,98861.86
2019-05-29T02:53:04.749Z,98860.14
2019-05-29T02:56:18.247Z,98866.45
2019-05-29T02:59:32.248Z,98868.81
2019-05-29T03:02:45.914Z,98862.05
2019-05-29T03:05:59.414Z,98865.94
2019-05-29T03:09:13.037Z,98868.76
2019-05-29T03:12:27.091Z,98868.70
2019-05-29T03:15:40.983Z,98882.04
2019-05-29T03:18:54.499Z,98887.77
2019-05-29T03:22:07.971Z,98891.02
2019-05-29T03:25:21.574Z,98905.09
2019-05-29T03:28:35.425Z,98907.94
2019-05-29T03:31:49.108Z,98911.06
2019-05-29T03:35:03.218Z,98918.22
2019-05-29T03:38:16.937Z,98916.48
2019-05-29T03:41:30.458Z,98918.28
2019-05-29T03:44:44.239Z,98923.64
2019-05-29T03:47:57.905Z,98924.77
2019-05-29T03:51:11.550Z,98922.91
2019-05-29T03:54:26.683Z,98930.77
2019-05-29T03:57:40.529Z,98930.09
2019-05-29T04:00:54.037Z,98937.20
2019-05-29T04:04:07.550Z,98943.97
2019-05-29T04:07:21.025Z,98946.48
2019-05-29T04:10:37.021Z,98949.72
2019-05-29T04:13:50.019Z,98951.86
2019-05-29T04:17:05.354Z,98962.84
2019-05-29T04:20:19.004Z,98958.38
2019-05-29T04:23:34.040Z,98967.72
2019-05-29T04:26:49.997Z,98970.30
2019-05-29T04:30:05.299Z,98972.81
2019-05-29T04:33:18.804Z,98975.23
2019-05-29T04:36:33.032Z,98974.29
2019-05-29T04:39:47.945Z,98979.72
2019-05-29T04:43:01.419Z,98988.66
2019-05-29T04:46:15.038Z,98990.73
2019-05-29T04:49:29.464Z,98992.56
2019-05-29T04:52:44.982Z,98999.33
2019-05-29T04:56:01.957Z,99001.95
2019-05-29T04:59:15.470Z,99006.62
2019-05-29T05:02:28.993Z,99009.77
2019-05-29T05:05:42.503Z,99022.30
2019-05-29T05:08:56.171Z,99028.90
2019-05-29T05:12:10.221Z,99032.81
2019-05-29T05:16:39.984Z,99034.67
2019-05-29T05:19:53.486Z,99042.64
2019-05-29T05:23:07.007Z,99047.68
2019-05-29T05:26:20.606Z,99046.34
2019-05-29T05:29:34.195Z,99053.67
2019-05-29T05:32:47.952Z,99054.80
2019-05-29T05:36:01.981Z,99059.44
2019-05-29T05:39:15.896Z,99060.89
2019-05-29T05:42:31.004Z,99062.75
2019-05-29T05:45:44.617Z,99063.13
2019-05-29T05:48:58.573Z,99069.83
2019-05-29T05:52:12.341Z,99067.52
2019-05-29T05:55:26.018Z,99078.30
2019-05-29T05:58:39.985Z,99076.63
2019-05-29T06:01:53.592Z,99082.86
2019-05-29T06:05:07.328Z,99085.86
2019-05-29T06:08:20.812Z,99089.84
2019-05-29T06:11:34.545Z,99100.73
2019-05-29T06:14:48.022Z,99101.02
2019-05-29T06:18:19.959Z,99096.00
2019-05-29T06:21:16.958Z,99106.41
2019-05-29T06:24:30.442Z,99095.35
2019-05-29T06:27:44.307Z,99107.13
2019-05-29T06:30:57.937Z,99106.89
2019-05-29T06:34:11.544Z,99113.64
2019-05-29T06:37:25.055Z,99109.05
2019-05-29T06:40:40.228Z,99116.84
2019-05-29T06:43:53.863Z,99121.58
2019-05-29T06:47:07.433Z,99121.59
2019-05-29T06:50:21.050Z,99126.30
2019-05-29T06:53:35.710Z,99133.69
2019-05-29T06:56:49.334Z,99127.13
2019-05-29T07:00:04.189Z,99129.92
2019-05-29T07:03:17.991Z,99137.39
2019-05-29T07:06:31.657Z,99140.70
2019-05-29T07:09:45.289Z,99142.70
2019-05-29T07:12:58.997Z,99145.36
2019-05-29T07:16:12.622Z,99144.27
2019-05-29T07:19:45.129Z,99147.31
2019-05-29T07:22:42.997Z,99148.05
2019-05-29T07:25:56.718Z,99148.44
2019-05-29T07:29:10.230Z,99156.83
2019-05-29T07:32:23.741Z,99158.42
2019-05-29T07:35:37.533Z,99150.73
2019-05-29T07:39:02.624Z,99163.63
2019-05-29T07:42:06.434Z,99160.19
2019-05-29T07:45:20.115Z,99158.41
2019-05-29T07:48:33.601Z,99169.10
2019-05-29T07:51:47.529Z,99170.27
2019-05-29T07:55:02.238Z,99166.52
2019-05-29T07:58:15.840Z,99170.02
2019-05-29T08:01:30.552Z,99180.00
2019-05-29T08:04:45.184Z,99179.38
2019-05-29T08:07:58.854Z,99180.64
2019-05-29T08:11:12.433Z,99184.69
2019-05-29T08:14:26.213Z,99194.51
2019-05-29T08:17:40.056Z,99198.58
2019-05-29T08:20:53.607Z,99195.91
2019-05-29T08:24:07.134Z,99201.53
2019-05-29T08:27:21.018Z,99203.65
2019-05-29T08:30:34.538Z,99201.81
2019-05-29T08:33:48.971Z,99204.62
2019-05-29T08:37:07.154Z,99212.47
2019-05-29T08:40:18.962Z,99212.51
2019-05-29T08:43:32.781Z,99207.52
2019-05-29T08:47:08.214Z,99214.05
2019-05-29T08:50:17.245Z,99214.27
2019-05-29T08:53:17.466Z,99213.77
2019-05-29T08:56:31.971Z,99217.00
2019-05-29T08:59:46.382Z,99213.67
2019-05-29T09:03:00.525Z,99218.77
2019-05-29T09:06:14.578Z,99216.39
2019-05-29T09:09:28.239Z,99220.69
2019-05-29T09:12:45.913Z,99222.52
2019-05-29T09:15:58.108Z,99234.30
2019-05-29T09:19:12.132Z,99230.57
2019-05-29T09:22:25.733Z,99230.20
2019-05-29T09:25:39.252Z,99235.08
2019-05-29T09:28:53.210Z,99228.69
2019-05-29T09:32:07.013Z,99228.84
2019-05-29T09:35:21.966Z,99232.50
2019-05-29T09:38:36.115Z,99226.34
2019-05-29T09:41:50.116Z,99237.23
2019-05-29T09:45:04.920Z,99235.44
2019-05-29T09:48:23.321Z,99233.50
2019-05-29T09:51:35.754Z,99236.09
2019-05-29T09:54:49.984Z,99249.96
2019-05-29T09:58:04.513Z,99246.96
2019-05-29T10:01:23.944Z,99236.31
2019-05-29T10:04:33.794Z,99227.53
2019-05-29T10:07:47.920Z,99248.73
2019-05-29T10:11:08.691Z,99257.36
2019-05-29T10:14:17.115Z,99260.19
2019-05-29T10:17:30.833Z,99257.20
2019-05-29T10:20:44.606Z,99258.43
2019-05-29T10:23:59.590Z,99257.04
2019-05-29T10:27:13.269Z,99247.47
2019-05-29T10:30:27.438Z,99254.73
2019-05-29T10:33:42.383Z,99262.11
2019-05-29T10:36:55.940Z,99258.92
2019-05-29T10:40:09.954Z,99263.23
2019-05-29T10:43:33.611Z,99262.34
2019-05-29T10:46:38.973Z,99262.33
2019-05-29T10:49:53.779Z,99256.55
2019-05-29T10:53:07.661Z,99250.93
2019-05-29T10:56:21.782Z,99245.16
2019-05-29T10:59:35.601Z,99249.62
2019-05-29T11:02:50.171Z,99247.02
2019-05-29T11:06:04.962Z,99246.77
2019-05-29T11:09:18.903Z,99245.05
2019-05-29T11:12:32.697Z,99245.05
2019-05-29T11:15:46.517Z,99255.60
2019-05-29T11:19:00.027Z,99253.84
2019-05-29T11:22:25.620Z,99244.72
2019-05-29T11:25:30.348Z,99232.73
2019-05-29T11:28:48.365Z,99235.66
2019-05-29T11:32:05.339Z,99231.13
2019-05-29T11:35:19.723Z,99239.19
2019-05-29T11:38:35.980Z,99230.27
2019-05-29T11:41:50.562Z,99232.49
2019-05-29T11:45:06.356Z,99245.77
2019-05-29T11:48:20.445Z,99248.13
2019-05-29T11:51:34.510Z,99242.91
2019-05-29T11:54:48.771Z,99243.41
2019-05-29T11:58:03.291Z,99239.36
2019-05-29T12:01:20.763Z,99244.30
2019-05-29T12:04:37.141Z,99237.16
2019-05-29T12:07:53.323Z,99248.04
2019-05-29T12:11:07.873Z,99241.25
2019-05-29T12:16:40.649Z,99230.23
2019-05-29T12:19:56.061Z,99226.90
2019-05-29T12:23:25.074Z,99229.25
2019-05-29T12:26:26.827Z,99223.28
2019-05-29T12:29:43.295Z,99221.91
2019-05-29T12:36:31.237Z,99228.75
2019-05-29T12:39:45.629Z,99230.94
2019-05-29T12:43:00.148Z,99234.06
2019-05-29T12:46:14.215Z,99227.08
2019-05-29T12:49:28.099Z,99227.81
2019-05-29T12:52:42.363Z,99215.16
2019-05-29T12:55:56.332Z,99215.38
2019-05-29T12:59:09.835Z,99217.70
2019-05-29T13:02:23.479Z,99217.09
2019-05-29T13:05:37.137Z,99209.26
2019-05-29T13:08:50.683Z,99232.29
2019-05-29T13:12:04.856Z,99226.78
2019-05-29T13:15:18.693Z,99229.91
2019-05-29T13:18:33.119Z,99241.75
2019-05-29T13:21:46.949Z,99241.62
2019-05-29T13:25:01.286Z,99235.66
2019-05-29T13:28:14.885Z,99222.25
2019-05-29T13:31:28.800Z,99227.52
2019-05-29T13:34:42.509Z,99222.39
2019-05-29T13:37:56.922Z,99213.59
2019-05-29T13:41:10.588Z,99214.43
2019-05-29T13:44:24.104Z,99222.21
2019-05-29T13:47:37.769Z,99218.91
2019-05-29T13:50:51.506Z,99206.02
2019-05-29T13:54:13.199Z,99209.37
2019-05-29T13:57:20.702Z,99205.55
2019-05-29T14:00:35.159Z,99208.80
2019-05-29T14:03:50.657Z,99215.89
2019-05-29T14:07:05.044Z,99226.13
2019-05-29T14:10:19.127Z,99225.42
2019-05-29T14:13:32.996Z,99229.13
2019-05-29T14:16:46.753Z,99233.66
2019-05-29T14:20:00.669Z,99225.61
2019-05-29T14:23:14.314Z,99229.07
2019-05-29T14:26:27.852Z,99231.20
2019-05-29T14:29:41.384Z,99228.14
2019-05-29T14:32:54.877Z,99229.31
2019-05-29T14:36:09.305Z,99238.30
2019-05-29T14:39:23.013Z,99243.26
2019-05-29T14:42:36.709Z,99242.44
2019-05-29T14:45:50.353Z,99246.50
2019-05-29T14:49:04.376Z,99239.38
2019-05-29T14:52:18.007Z,99246.91
2019-05-29T14:55:31.689Z,99234.54
2019-05-29T14:58:45.331Z,99240.47
2019-05-29T15:01:58.875Z,99238.34
2019-05-29T15:05:15.112Z,99234.97
2019-05-29T15:08:28.737Z,99238.78
2019-05-29T15:11:42.261Z,99242.25
2019-05-29T15:14:56.128Z,99236.88
2019-05-29T15:18:13.685Z,99232.31
2019-05-29T15:21:25.149Z,99232.43
2019-05-29T15:24:39.016Z,99239.59
2019-05-29T15:27:52.540Z,99239.66
2019-05-29T15:31:06.362Z,99235.61
2019-05-29T15:34:20.265Z,99232.39
2019-05-29T15:37:34.181Z,99235.50
2019-05-29T15:40:47.722Z,99242.01
2019-05-29T15:44:01.725Z,99241.58
2019-05-29T15:47:15.419Z,99236.53
2019-05-29T15:50:29.081Z,99236.20
2019-05-29T15:53:42.846Z,99242.42
2019-05-29T15:56:56.729Z,99244.09
2019-05-29T16:00:11.407Z,99245.50
2019-05-29T16:03:25.345Z,99247.74
2019-05-29T16:06:38.826Z,99235.85
2019-05-29T16:09:52.330Z,99361.58
2019-05-29T16:13:05.953Z,99227.55
2019-05-29T16:16:19.434Z,99238.84
2019-05-29T16:19:32.950Z,99243.41
2019-05-29T16:22:46.487Z,99242.65
2019-05-29T16:26:00.760Z,99248.55
2019-05-29T16:29:16.407Z,99254.75
2019-05-29T16:32:30.088Z,99251.91
2019-05-29T16:35:44.077Z,99239.23
2019-05-29T16:38:57.655Z,99233.97
2019-05-29T16:42:11.880Z,99236.89
2019-05-29T16:45:25.713Z,99239.34
2019-05-29T16:48:39.376Z,99242.21
2019-05-29T16:51:53.018Z,99239.99
2019-05-29T16:55:06.881Z,99235.22
2019-05-29T16:58:21.294Z,99247.13
2019-05-29T17:01:34.934Z,99257.58
2019-05-29T17:04:48.656Z,99259.47
2019-05-29T17:08:02.606Z,99253.80
2019-05-29T17:11:16.375Z,99261.25
2019-05-29T17:14:30.095Z,99261.00
2019-05-29T17:17:43.849Z,99261.00
2019-05-29T17:20:57.401Z,99266.59
2019-05-29T17:24:11.087Z,99281.77
2019-05-29T17:27:25.131Z,99281.77
2019-05-29T17:30:39.080Z,99290.73
2019-05-29T17:33:52.870Z,99291.16
2019-05-29T17:37:06.688Z,99288.89
2019-05-29T17:40:21.474Z,99297.89
2019-05-29T17:43:35.582Z,99303.67
2019-05-29T17:46:49.338Z,99307.93
2019-05-29T17:50:04.664Z,99299.20
2019-05-29T17:53:18.290Z,99304.02
2019-05-29T17:56:36.720Z,99306.34
2019-05-29T17:59:47.798Z,99313.78
2019-05-29T18:03:01.544Z,99318.91
2019-05-29T18:06:16.236Z,99315.08
2019-05-29T18:09:30.495Z,99319.63
2019-05-29T18:12:44.115Z,99315.11
2019-05-29T18:15:58.177Z,99314.98
2019-05-29T18:19:11.680Z,99320.22
2019-05-29T18:22:25.716Z,99328.97
2019-05-29T18:25:39.346Z,99333.12
2019-05-29T18:28:53.246Z,99334.66
2019-05-29T18:32:06.998Z,99349.45
2019-05-29T18:35:20.833Z,99351.76
2019-05-29T18:38:34.525Z,99360.61
2019-05-29T18:41:48.132Z,99366.03
2019-05-29T18:45:02.236Z,99360.61
2019-05-29T18:48:15.911Z,99361.48
2019-05-29T18:51:29.390Z,99365.30
2019-05-29T18:54:42.930Z,99367.41
2019-05-29T18:57:56.444Z,99368.67
2019-05-29T19:01:10.042Z,99364.05
2019-05-29T19:04:23.653Z,99373.06
2019-05-29T19:07:37.245Z,99378.91
2019-05-29T19:10:51.162Z,99382.64
2019-05-29T19:14:04.959Z,99388.44
2019-05-29T19:17:18.561Z,99393.33
2019-05-29T19:20:32.603Z,99397.68
2019-05-29T19:23:46.152Z,99398.69
2019-05-29T19:27:00.047Z,99401.72
2019-05-29T19:30:15.365Z,99408.66
2019-05-29T19:33:29.382Z,99413.59
2019-05-29T19:36:43.041Z,99418.34
2019-05-29T19:39:56.560Z,99431.36
2019-05-29T19:43:10.062Z,99439.81
2019-05-29T19:46:24.471Z,99446.38
2019-05-29T19:49:38.171Z,99453.30
2019-05-29T19:52:52.282Z,99455.62
2019-05-29T19:56:06.356Z,99456.44
2019-05-29T19:59:20.202Z,99464.95
2019-05-29T20:02:34.672Z,99472.90
2019-05-29T20:05:48.302Z,99478.04
2019-05-29T20:09:04.831Z,99484.67
2019-05-29T20:12:18.400Z,99490.70
2019-05-29T20:15:36.440Z,99490.77
2019-05-29T20:18:50.063Z,99490.64
2019-05-29T20:22:05.168Z,99496.69
2019-05-29T20:25:21.557Z,99506.91
2019-05-29T20:28:36.128Z,99505.66
2019-05-29T20:31:49.912Z,99504.06
2019-05-29T20:35:03.843Z,99505.78
2019-05-29T20:38:17.330Z,99504.53
2019-05-29T20:41:34.095Z,99508.98
2019-05-29T20:44:46.620Z,99512.09
2019-05-29T20:48:00.353Z,99515.52
2019-05-29T20:51:14.181Z,99514.38
2019-05-29T20:54:27.682Z,99513.48
2019-05-29T20:57:42.171Z,99512.22
2019-05-29T21:00:55.772Z,99518.54
2019-05-29T21:04:09.258Z,99523.59
2019-05-29T21:07:22.810Z,99528.86
2019-05-29T21:10:37.213Z,99535.42
2019-05-29T21:16:39.803Z,99536.73
2019-05-29T21:19:53.478Z,99537.88
2019-05-29T21:23:06.945Z,99548.07
2019-05-29T21:26:20.685Z,99552.43
2019-05-29T21:29:35.171Z,99555.50
2019-05-29T21:32:48.806Z,99552.44
2019-05-29T21:36:02.366Z,99563.11
2019-05-29T21:39:15.875Z,99562.08
2019-05-29T21:42:29.357Z,99567.08
2019-05-29T21:45:43.176Z,99572.87
2019-05-29T21:48:56.632Z,99570.30
2019-05-29T21:52:10.128Z,99571.20
2019-05-29T21:55:23.714Z,99581.98
2019-05-29T21:58:37.553Z,99584.05
2019-05-29T22:01:51.418Z,99571.45
2019-05-29T22:05:06.403Z,99570.16
2019-05-29T22:08:20.094Z,99568.34
2019-05-29T22:11:33.694Z,99572.98
2019-05-29T22:14:47.962Z,99572.45
2019-05-29T22:18:01.584Z,99569.88
2019-05-29T22:21:15.185Z,99574.77
2019-05-29T22:24:28.670Z,99574.77
2019-05-29T22:27:42.164Z,99578.52
2019-05-29T22:30:55.763Z,99575.30
2019-05-29T22:34:09.244Z,99575.05
2019-05-29T22:37:22.860Z,99574.02
2019-05-29T22:40:36.770Z,99577.64
2019-05-29T22:43:51.378Z,99575.06
2019-05-29T22:47:05.150Z,99570.67
2019-05-29T22:50:18.741Z,99573.52
2019-05-29T22:53:32.323Z,99570.95
2019-05-29T22:56:45.816Z,99568.13
2019-05-29T23:00:00.089Z,99574.80
2019-05-29T23:03:14.038Z,99575.83
2019-05-29T23:06:27.547Z,99573.50
2019-05-29T23:09:41.024Z,99576.34
2019-05-29T23:12:56.181Z,99576.75
2019-05-29T23:16:10.077Z,99576.50
2019-05-29T23:19:23.582Z,99571.85
2019-05-29T23:22:37.179Z,99569.02
2019-05-29T23:25:50.650Z,99567.61
2019-05-29T23:29:04.274Z,99563.76
2019-05-29T23:32:20.232Z,99568.11
2019-05-29T23:35:33.724Z,99567.72
2019-05-29T23:38:47.214Z,99563.22
2019-05-29T23:42:01.577Z,99561.68
2019-05-29T23:45:15.286Z,99562.70
2019-05-29T23:48:28.765Z,99562.95
2019-05-29T23:51:42.650Z,99563.20
2019-05-29T23:54:56.166Z,99554.09
2019-05-29T23:58:09.740Z,99559.24
